createdAt,value
2018-03-04T00:01:37.127Z,39.80
2018-03-04T00:04:04.419Z,39.20
2018-03-04T00:06:30.907Z,39.90
2018-03-04T00:08:57.272Z,39.60
2018-03-04T00:11:24.485Z,39.80
2018-03-04T00:13:50.860Z,39.80
2018-03-04T00:16:17.562Z,40.30
2018-03-04T00:18:44.052Z,40.40
2018-03-04T00:21:11.274Z,40.20
2018-03-04T00:23:37.642Z,40.10
2018-03-04T00:26:05.570Z,40.60
2018-03-04T00:28:32.306Z,40.60
2018-03-04T00:30:59.169Z,41.00
2018-03-04T00:33:26.117Z,40.60
2018-03-04T00:35:53.948Z,41.40
2018-03-04T00:38:20.851Z,41.40
2018-03-04T00:40:47.687Z,41.00
2018-03-04T00:43:15.052Z,41.60
2018-03-04T00:45:41.896Z,41.60
2018-03-04T00:48:08.740Z,41.40
2018-03-04T00:50:35.896Z,41.50
2018-03-04T00:53:02.777Z,41.50
2018-03-04T00:55:30.329Z,42.50
2018-03-04T00:57:57.579Z,42.10
2018-03-04T01:00:24.340Z,42.30
2018-03-04T01:02:50.719Z,42.50
2018-03-04T01:05:17.517Z,42.40
2018-03-04T01:07:44.296Z,42.60
2018-03-04T01:10:12.052Z,42.50
2018-03-04T01:12:39.540Z,42.90
2018-03-04T01:15:06.765Z,42.60
2018-03-04T01:17:33.868Z,43.20
2018-03-04T01:20:00.632Z,43.00
2018-03-04T01:22:27.593Z,43.20
2018-03-04T01:24:54.873Z,43.50
2018-03-04T01:27:22.401Z,43.20
2018-03-04T01:29:49.290Z,43.20
2018-03-04T01:32:16.744Z,43.70
2018-03-04T01:34:43.607Z,43.50
2018-03-04T01:37:11.158Z,43.60
2018-03-04T01:39:38.420Z,43.60
2018-03-04T01:42:06.152Z,44.00
2018-03-04T01:44:32.948Z,43.70
2018-03-04T01:47:00.687Z,43.90
2018-03-04T01:49:27.385Z,43.80
2018-03-04T01:51:54.168Z,43.80
2018-03-04T01:54:21.499Z,43.80
2018-03-04T01:56:48.259Z,43.90
2018-03-04T01:59:15.112Z,43.40
2018-03-04T02:01:41.960Z,44.20
2018-03-04T02:04:09.108Z,44.00
2018-03-04T02:06:36.079Z,44.40
2018-03-04T02:09:03.029Z,44.50
2018-03-04T02:11:29.808Z,44.20
2018-03-04T02:13:57.378Z,44.80
2018-03-04T02:16:24.273Z,44.60
2018-03-04T02:18:51.121Z,44.40
2018-03-04T02:21:19.500Z,44.60
2018-03-04T02:23:46.364Z,45.00
2018-03-04T02:26:13.304Z,44.90
2018-03-04T02:28:40.417Z,44.70
2018-03-04T02:31:07.310Z,45.10
2018-03-04T02:33:34.082Z,45.10
2018-03-04T02:36:00.934Z,45.20
2018-03-04T02:38:28.879Z,45.30
2018-03-04T02:40:56.337Z,45.20
2018-03-04T02:43:23.089Z,45.10
2018-03-04T02:45:50.255Z,45.30
2018-03-04T02:48:17.187Z,45.50
2018-03-04T02:50:44.995Z,45.10
2018-03-04T02:53:12.927Z,45.60
2018-03-04T02:55:39.816Z,45.60
2018-03-04T02:58:07.290Z,45.70
2018-03-04T03:00:34.610Z,45.80
2018-03-04T03:03:01.461Z,45.30
2018-03-04T03:05:28.408Z,45.80
2018-03-04T03:07:55.249Z,45.60
2018-03-04T03:10:21.752Z,45.90
2018-03-04T03:12:48.099Z,45.80
2018-03-04T03:15:14.589Z,45.60
2018-03-04T03:17:40.939Z,45.40
2018-03-04T03:20:08.459Z,45.90
2018-03-04T03:22:34.925Z,45.90
2018-03-04T03:25:01.279Z,45.70
2018-03-04T03:27:28.371Z,45.70
2018-03-04T03:29:55.563Z,46.10
2018-03-04T03:32:22.491Z,45.80
2018-03-04T03:34:49.281Z,45.90
2018-03-04T03:37:17.153Z,45.80
2018-03-04T03:39:44.923Z,45.80
2018-03-04T03:42:12.473Z,45.70
2018-03-04T03:44:39.701Z,45.80
2018-03-04T03:47:06.476Z,45.90
2018-03-04T03:49:33.328Z,45.80
2018-03-04T03:52:00.144Z,46.00
2018-03-04T03:54:27.353Z,46.60
2018-03-04T03:56:54.188Z,46.20
2018-03-04T03:59:21.817Z,47.00
2018-03-04T04:01:48.522Z,46.20
2018-03-04T04:04:15.409Z,46.30
2018-03-04T04:06:42.375Z,46.20
2018-03-04T04:09:09.140Z,46.30
2018-03-04T04:11:36.247Z,46.10
2018-03-04T04:14:03.031Z,46.30
2018-03-04T04:16:29.784Z,46.50
2018-03-04T04:18:56.842Z,46.30
2018-03-04T04:21:23.992Z,46.10
2018-03-04T04:23:51.012Z,46.40
2018-03-04T04:26:17.793Z,46.20
2018-03-04T04:28:45.625Z,46.50
2018-03-04T04:31:12.475Z,46.10
2018-03-04T04:33:39.532Z,46.20
2018-03-04T04:36:06.770Z,46.30
2018-03-04T04:38:33.751Z,46.50
2018-03-04T04:41:00.540Z,46.50
2018-03-04T04:43:27.336Z,46.10
2018-03-04T04:45:54.383Z,45.60
2018-03-04T04:48:21.237Z,46.20
2018-03-04T04:50:48.117Z,46.40
2018-03-04T04:53:14.856Z,46.40
2018-03-04T04:55:41.669Z,46.50
2018-03-04T04:58:08.046Z,46.30
2018-03-04T05:00:35.151Z,46.50
2018-03-04T05:03:02.264Z,46.10
2018-03-04T05:05:29.998Z,45.70
2018-03-04T05:07:56.909Z,45.30
2018-03-04T05:10:23.901Z,44.70
2018-03-04T05:12:50.876Z,44.40
2018-03-04T05:15:18.507Z,44.10
2018-03-04T05:17:45.247Z,43.40
2018-03-04T05:20:12.521Z,43.30
2018-03-04T05:22:39.362Z,42.70
2018-03-04T05:25:06.248Z,42.30
2018-03-04T05:27:33.171Z,42.70
2018-03-04T05:30:00.551Z,42.20
2018-03-04T05:32:28.120Z,42.80
2018-03-04T05:34:56.145Z,42.00
2018-03-04T05:37:22.944Z,42.20
2018-03-04T05:39:50.495Z,42.00
2018-03-04T05:42:17.426Z,42.00
2018-03-04T05:44:44.939Z,41.90
2018-03-04T05:47:11.762Z,41.80
2018-03-04T05:49:39.732Z,42.50
2018-03-04T05:52:06.689Z,41.70
2018-03-04T05:54:34.316Z,42.10
2018-03-04T05:57:01.472Z,41.70
2018-03-04T05:59:28.344Z,41.80
2018-03-04T06:01:55.267Z,41.70
2018-03-04T06:04:22.320Z,41.60
2018-03-04T06:06:49.592Z,41.60
2018-03-04T06:09:16.453Z,41.20
2018-03-04T06:11:43.209Z,41.40
2018-03-04T06:14:11.985Z,41.50
2018-03-04T06:16:38.813Z,41.40
2018-03-04T06:19:05.589Z,41.70
2018-03-04T06:21:33.546Z,41.00
2018-03-04T06:24:00.423Z,42.20
2018-03-04T06:26:27.892Z,42.40
2018-03-04T06:28:55.812Z,42.50
2018-03-04T06:31:22.596Z,42.50
2018-03-04T06:33:49.695Z,42.80
2018-03-04T06:36:16.595Z,42.80
2018-03-04T06:38:43.621Z,42.90
2018-03-04T06:41:10.568Z,42.70
2018-03-04T06:43:37.351Z,42.70
2018-03-04T06:46:05.301Z,43.90
2018-03-04T06:48:32.137Z,43.00
2018-03-04T06:50:59.619Z,43.10
2018-03-04T06:53:26.883Z,42.40
2018-03-04T06:55:53.267Z,41.90
2018-03-04T06:58:20.076Z,42.10
2018-03-04T07:00:48.025Z,41.70
2018-03-04T07:03:14.983Z,41.60
2018-03-04T07:05:41.746Z,41.70
2018-03-04T07:08:08.670Z,42.40
2018-03-04T07:10:35.830Z,42.50
2018-03-04T07:13:02.771Z,42.80
2018-03-04T07:15:29.650Z,43.00
2018-03-04T07:17:57.511Z,43.10
2018-03-04T07:20:23.870Z,43.00
2018-03-04T07:22:51.424Z,43.10
2018-03-04T07:25:18.521Z,43.40
2018-03-04T07:27:45.376Z,43.30
2018-03-04T07:30:12.133Z,42.50
2018-03-04T07:32:38.828Z,42.90
2018-03-04T07:35:06.555Z,42.90
2018-03-04T07:37:33.708Z,42.70
2018-03-04T07:40:00.553Z,43.00
2018-03-04T07:42:27.422Z,43.80
2018-03-04T07:44:54.314Z,44.30
2018-03-04T07:47:20.712Z,44.30
2018-03-04T07:49:47.764Z,44.50
2018-03-04T07:52:14.687Z,44.50
2018-03-04T07:54:41.638Z,44.90
2018-03-04T07:57:08.401Z,44.80
2018-03-04T07:59:35.156Z,44.20
2018-03-04T08:02:01.884Z,45.30
2018-03-04T08:04:28.793Z,45.20
2018-03-04T08:06:56.703Z,44.40
2018-03-04T08:09:23.553Z,44.20
2018-03-04T08:11:49.917Z,43.80
2018-03-04T08:14:17.561Z,44.20
2018-03-04T08:16:44.422Z,44.10
2018-03-04T08:19:11.275Z,43.90
2018-03-04T08:21:37.624Z,44.30
2018-03-04T08:24:04.726Z,44.50
2018-03-04T08:26:51.133Z,44.50
2018-03-04T08:29:18.337Z,44.80
2018-03-04T08:31:45.852Z,45.40
2018-03-04T08:34:12.628Z,45.70
2018-03-04T08:36:39.376Z,45.90
2018-03-04T08:39:06.501Z,45.80
2018-03-04T08:41:33.282Z,46.10
2018-03-04T08:44:00.529Z,46.20
2018-03-04T08:46:26.915Z,46.20
2018-03-04T08:48:53.740Z,46.40
2018-03-04T08:51:20.560Z,46.80
2018-03-04T08:53:47.495Z,46.60
2018-03-04T08:56:14.294Z,46.50
2018-03-04T08:58:41.357Z,46.30
2018-03-04T09:01:08.153Z,46.70
2018-03-04T09:03:34.853Z,45.60
2018-03-04T09:06:01.235Z,46.00
2018-03-04T09:08:28.005Z,45.60
2018-03-04T09:10:55.324Z,45.10
2018-03-04T09:13:21.716Z,44.90
2018-03-04T09:15:48.081Z,44.80
2018-03-04T09:18:14.654Z,44.70
2018-03-04T09:20:41.174Z,44.60
2018-03-04T09:23:07.539Z,44.10
2018-03-04T09:25:34.058Z,44.70
2018-03-04T09:28:00.838Z,44.70
2018-03-04T09:30:28.174Z,44.90
2018-03-04T09:32:54.529Z,44.60
2018-03-04T09:35:21.761Z,45.60
2018-03-04T09:37:48.134Z,44.70
2018-03-04T09:40:15.304Z,45.30
2018-03-04T09:42:41.895Z,45.10
2018-03-04T09:45:08.257Z,46.00
2018-03-04T09:48:40.819Z,48.60
2018-03-04T09:51:07.919Z,42.00
2018-03-04T09:53:34.301Z,42.00
2018-03-04T09:56:01.629Z,40.00
2018-03-04T09:58:28.834Z,40.20
2018-03-04T10:00:55.667Z,40.20
2018-03-04T10:03:22.908Z,39.80
2018-03-04T10:05:50.157Z,39.40
2018-03-04T10:08:16.633Z,39.50
2018-03-04T10:10:43.168Z,39.30
2018-03-04T10:13:10.374Z,38.80
2018-03-04T10:15:37.465Z,38.80
2018-03-04T10:18:05.002Z,38.70
2018-03-04T10:20:31.940Z,38.70
2018-03-04T10:22:59.119Z,39.10
2018-03-04T10:25:26.244Z,38.90
2018-03-04T10:27:52.760Z,38.90
2018-03-04T10:30:19.126Z,39.10
2018-03-04T10:32:45.726Z,38.90
2018-03-04T10:35:12.358Z,39.00
2018-03-04T10:37:39.589Z,39.90
2018-03-04T10:40:05.963Z,39.40
2018-03-04T10:42:33.179Z,40.30
2018-03-04T10:45:00.073Z,40.30
2018-03-04T10:47:26.538Z,40.90
2018-03-04T10:49:52.929Z,42.40
2018-03-04T10:52:20.390Z,42.70
2018-03-04T10:54:47.955Z,43.30
2018-03-04T10:57:15.058Z,44.60
2018-03-04T10:59:42.356Z,45.50
2018-03-04T11:02:15.632Z,46.30
2018-03-04T11:04:42.019Z,45.90
2018-03-04T11:07:09.135Z,47.00
2018-03-04T11:09:35.521Z,47.70
2018-03-04T11:12:01.924Z,47.80
2018-03-04T11:14:28.848Z,48.50
2018-03-04T11:16:55.608Z,48.60
2018-03-04T11:19:29.012Z,48.40
2018-03-04T11:21:55.481Z,47.90
2018-03-04T11:24:21.846Z,47.00
2018-03-04T11:26:48.700Z,47.10
2018-03-04T11:29:15.593Z,47.10
2018-03-04T11:31:42.715Z,47.40
2018-03-04T11:34:09.972Z,46.50
2018-03-04T11:36:36.807Z,46.70
2018-03-04T11:39:03.331Z,46.50
2018-03-04T11:41:29.711Z,46.50
2018-03-04T11:43:56.240Z,46.30
2018-03-04T11:46:22.716Z,46.30
2018-03-04T11:48:50.246Z,46.00
2018-03-04T11:51:17.045Z,45.80
2018-03-04T11:53:43.741Z,45.50
2018-03-04T11:56:10.116Z,45.50
2018-03-04T11:58:37.438Z,45.50
2018-03-04T12:01:04.479Z,45.30
2018-03-04T12:03:31.505Z,45.10
2018-03-04T12:05:57.930Z,45.10
2018-03-04T12:08:24.398Z,45.20
2018-03-04T12:10:51.379Z,45.10
2018-03-04T12:13:18.164Z,45.10
2018-03-04T12:15:44.940Z,45.80
2018-03-04T12:18:11.311Z,45.80
2018-03-04T12:20:37.847Z,46.10
2018-03-04T12:23:04.716Z,46.80
2018-03-04T12:25:32.156Z,49.00
2018-03-04T12:27:59.193Z,48.80
2018-03-04T12:30:25.596Z,49.90
2018-03-04T12:32:51.963Z,51.00
2018-03-04T12:35:19.136Z,52.40
2018-03-04T12:37:46.075Z,53.60
2018-03-04T12:40:13.137Z,54.70
2018-03-04T12:42:39.912Z,55.60
2018-03-04T12:45:07.300Z,57.80
2018-03-04T12:47:34.145Z,57.80
2018-03-04T12:50:00.885Z,57.10
2018-03-04T12:52:27.724Z,56.90
2018-03-04T12:54:54.837Z,57.70
2018-03-04T12:57:21.435Z,58.60
2018-03-04T12:59:49.045Z,59.10
2018-03-04T13:02:16.198Z,59.80
2018-03-04T13:04:42.828Z,61.50
2018-03-04T13:07:10.700Z,61.40
2018-03-04T13:09:37.789Z,58.90
2018-03-04T13:12:05.645Z,56.20
2018-03-04T13:14:32.542Z,55.80
2018-03-04T13:16:59.462Z,53.80
2018-03-04T13:19:26.563Z,51.50
2018-03-04T13:21:53.387Z,50.40
2018-03-04T13:24:20.314Z,50.10
2018-03-04T13:26:47.814Z,49.70
2018-03-04T13:29:14.948Z,49.70
2018-03-04T13:31:42.006Z,49.50
2018-03-04T13:34:08.807Z,48.60
2018-03-04T13:36:36.365Z,49.20
2018-03-04T13:39:03.008Z,49.20
2018-03-04T13:41:29.928Z,49.60
2018-03-04T13:43:56.293Z,49.90
2018-03-04T13:46:22.817Z,49.20
2018-03-04T13:48:49.608Z,49.70
2018-03-04T13:51:16.002Z,49.50
2018-03-04T13:53:42.781Z,49.60
2018-03-04T13:56:09.164Z,43.80
2018-03-04T13:58:35.546Z,44.60
2018-03-04T14:01:02.430Z,45.90
2018-03-04T14:03:28.808Z,47.10
2018-03-04T14:05:55.612Z,46.90
2018-03-04T14:08:22.756Z,48.40
2018-03-04T14:10:49.106Z,48.40
2018-03-04T14:13:16.002Z,50.10
2018-03-04T14:15:42.882Z,52.00
2018-03-04T14:18:09.271Z,53.80
2018-03-04T14:20:35.643Z,55.30
2018-03-04T14:23:02.177Z,56.40
2018-03-04T14:25:28.560Z,57.40
2018-03-04T14:27:55.289Z,57.30
2018-03-04T14:30:22.109Z,57.70
2018-03-04T14:32:48.502Z,57.90
2018-03-04T14:35:14.868Z,57.60
2018-03-04T14:37:41.430Z,57.70
2018-03-04T14:40:07.800Z,57.70
2018-03-04T14:42:35.220Z,57.80
2018-03-04T14:45:01.764Z,57.80
2018-03-04T14:47:28.368Z,57.70
2018-03-04T14:49:54.754Z,57.70
2018-03-04T14:52:21.298Z,57.50
2018-03-04T14:54:47.659Z,56.80
2018-03-04T14:57:14.821Z,55.90
2018-03-04T14:59:42.059Z,55.40
2018-03-04T15:02:08.540Z,55.40
2018-03-04T15:04:35.052Z,55.20
2018-03-04T15:07:02.905Z,54.60
2018-03-04T15:09:29.387Z,54.50
2018-03-04T15:11:55.759Z,54.50
2018-03-04T15:14:22.297Z,54.30
2018-03-04T15:16:48.681Z,55.10
2018-03-04T15:19:15.062Z,54.90
2018-03-04T15:21:41.544Z,55.50
2018-03-04T15:24:08.338Z,54.20
2018-03-04T15:26:34.716Z,52.50
2018-03-04T15:29:01.229Z,50.40
2018-03-04T15:31:27.613Z,49.60
2018-03-04T15:33:54.740Z,46.60
2018-03-04T15:36:21.289Z,46.80
2018-03-04T15:38:48.026Z,45.30
2018-03-04T15:41:14.380Z,42.10
2018-03-04T15:43:40.882Z,41.60
2018-03-04T15:46:07.249Z,40.70
2018-03-04T15:48:33.679Z,39.90
2018-03-04T15:51:00.215Z,39.50
2018-03-04T15:53:26.999Z,38.90
2018-03-04T15:55:54.639Z,40.20
2018-03-04T15:58:21.441Z,39.90
2018-03-04T16:00:47.818Z,40.60
2018-03-04T16:03:14.231Z,40.70
2018-03-04T16:05:41.207Z,40.70
2018-03-04T16:08:07.626Z,40.60
2018-03-04T16:10:34.030Z,40.90
2018-03-04T16:13:00.574Z,40.70
2018-03-04T16:15:27.401Z,40.80
2018-03-04T16:17:54.517Z,41.10
2018-03-04T16:20:20.918Z,41.00
2018-03-04T16:22:47.732Z,41.60
2018-03-04T16:25:14.096Z,41.70
2018-03-04T16:27:40.470Z,41.90
2018-03-04T16:30:07.730Z,41.90
2018-03-04T16:32:34.110Z,42.20
2018-03-04T16:35:01.225Z,44.00
2018-03-04T16:37:28.210Z,44.00
2018-03-04T16:39:55.016Z,44.90
2018-03-04T16:42:22.086Z,46.80
2018-03-04T16:44:48.475Z,46.70
2018-03-04T16:47:14.830Z,47.10
2018-03-04T16:49:41.326Z,47.90
2018-03-04T16:52:08.501Z,49.00
2018-03-04T16:54:34.932Z,48.40
2018-03-04T16:57:01.784Z,48.50
2018-03-04T16:59:29.259Z,48.10
2018-03-04T17:01:55.671Z,48.10
2018-03-04T17:04:22.789Z,48.70
2018-03-04T17:06:49.753Z,48.70
2018-03-04T17:09:16.124Z,48.70
2018-03-04T17:11:43.247Z,48.90
2018-03-04T17:14:09.760Z,49.70
2018-03-04T17:16:36.116Z,49.50
2018-03-04T17:19:02.505Z,49.20
2018-03-04T17:21:30.145Z,48.70
2018-03-04T17:23:57.353Z,49.10
2018-03-04T17:26:23.903Z,49.00
2018-03-04T17:28:50.689Z,48.90
2018-03-04T17:31:17.677Z,49.10
2018-03-04T17:33:44.188Z,49.60
2018-03-04T17:36:11.644Z,49.20
2018-03-04T17:38:38.832Z,49.20
2018-03-04T17:41:05.283Z,49.40
2018-03-04T17:43:32.806Z,49.80
2018-03-04T17:46:00.144Z,49.90
2018-03-04T17:48:26.758Z,50.00
2018-03-04T17:50:53.366Z,50.20
2018-03-04T17:53:20.247Z,50.00
2018-03-04T17:55:46.810Z,49.90
2018-03-04T17:58:13.344Z,49.90
2018-03-04T18:00:39.761Z,49.10
2018-03-04T18:03:06.140Z,49.20
2018-03-04T18:05:33.487Z,48.40
2018-03-04T18:08:00.661Z,48.30
2018-03-04T18:10:27.041Z,48.20
2018-03-04T18:12:53.548Z,47.90
2018-03-04T18:15:20.726Z,47.60
2018-03-04T18:17:47.092Z,47.60
2018-03-04T18:20:14.257Z,47.20
2018-03-04T18:22:40.663Z,47.20
2018-03-04T18:25:07.090Z,46.90
2018-03-04T18:27:33.693Z,47.30
2018-03-04T18:30:00.592Z,47.40
2018-03-04T18:32:27.024Z,47.40
2018-03-04T18:34:53.412Z,48.30
2018-03-04T18:37:20.361Z,48.20
2018-03-04T18:39:46.748Z,48.10
2018-03-04T18:42:13.185Z,47.60
2018-03-04T18:44:40.504Z,47.30
2018-03-04T18:47:06.920Z,47.40
2018-03-04T18:49:33.638Z,48.20
2018-03-04T18:52:00.233Z,49.30
2018-03-04T18:54:26.635Z,48.20
2018-03-04T18:56:53.042Z,49.40
2018-03-04T18:59:19.608Z,52.90
2018-03-04T19:01:46.503Z,54.70
2018-03-04T19:04:13.497Z,56.60
2018-03-04T19:06:40.337Z,58.40
2018-03-04T19:09:06.849Z,59.90
2018-03-04T19:11:33.274Z,60.10
2018-03-04T19:13:59.821Z,62.00
2018-03-04T19:16:27.065Z,61.80
2018-03-04T19:18:53.465Z,62.70
2018-03-04T19:21:19.956Z,63.60
2018-03-04T19:23:46.492Z,64.90
2018-03-04T19:26:13.436Z,65.50
2018-03-04T19:28:40.641Z,65.90
2018-03-04T19:31:07.088Z,66.10
2018-03-04T19:33:33.672Z,66.60
2018-03-04T19:36:00.135Z,66.90
2018-03-04T19:38:27.273Z,66.20
2018-03-04T19:40:53.800Z,66.00
2018-03-04T19:43:20.633Z,65.70
2018-03-04T19:45:47.021Z,65.10
2018-03-04T19:48:14.249Z,64.50
2018-03-04T19:50:40.699Z,64.30
2018-03-04T19:53:07.141Z,64.40
2018-03-04T19:55:34.145Z,63.80
2018-03-04T19:58:00.514Z,63.60
2018-03-04T20:00:26.903Z,63.00
2018-03-04T20:02:53.750Z,63.20
2018-03-04T20:05:20.713Z,62.50
2018-03-04T20:07:47.562Z,62.30
2018-03-04T20:10:15.017Z,62.30
2018-03-04T20:12:41.450Z,62.30
2018-03-04T20:15:07.905Z,62.20
2018-03-04T20:17:34.443Z,62.50
2018-03-04T20:20:01.521Z,62.50
2018-03-04T20:22:28.098Z,62.90
2018-03-04T20:24:55.747Z,62.60
2018-03-04T20:27:23.676Z,62.80
2018-03-04T20:29:50.334Z,62.00
2018-03-04T20:32:16.933Z,61.30
2018-03-04T20:34:44.287Z,60.10
2018-03-04T20:37:11.454Z,60.10
2018-03-04T20:39:37.968Z,59.80
2018-03-04T20:42:05.246Z,60.00
2018-03-04T20:44:32.476Z,59.30
2018-03-04T20:46:58.879Z,59.20
2018-03-04T20:49:25.476Z,59.20
2018-03-04T20:51:51.866Z,59.00
2018-03-04T20:54:18.243Z,58.80
2018-03-04T20:56:45.295Z,58.70
2018-03-04T20:59:11.799Z,58.60
2018-03-04T21:01:38.186Z,58.40
2018-03-04T21:04:05.618Z,59.00
2018-03-04T21:06:32.257Z,58.80
2018-03-04T21:08:59.109Z,58.90
2018-03-04T21:11:25.631Z,59.10
2018-03-04T21:13:52.029Z,58.80
2018-03-04T21:16:18.429Z,58.80
2018-03-04T21:18:45.025Z,58.80
2018-03-04T21:21:11.396Z,58.80
2018-03-04T21:23:38.169Z,58.60
2018-03-04T21:26:06.138Z,59.00
2018-03-04T21:28:32.832Z,58.50
2018-03-04T21:30:59.224Z,58.60
2018-03-04T21:33:25.750Z,58.70
2018-03-04T21:35:52.449Z,59.20
2018-03-04T21:38:18.847Z,58.60
2018-03-04T21:40:45.375Z,58.60
2018-03-04T21:43:11.767Z,58.40
2018-03-04T21:45:38.158Z,59.00
2018-03-04T21:48:04.655Z,58.90
2018-03-04T21:50:31.793Z,59.00
2018-03-04T21:52:58.149Z,58.70
2018-03-04T21:55:24.532Z,58.90
2018-03-04T21:57:51.032Z,59.00
2018-03-04T22:00:17.437Z,59.50
2018-03-04T22:02:43.805Z,58.80
2018-03-04T22:05:10.724Z,59.10
2018-03-04T22:07:37.136Z,58.70
2018-03-04T22:10:03.550Z,59.40
2018-03-04T22:12:30.238Z,59.40
2018-03-04T22:14:57.350Z,59.40
2018-03-04T22:17:24.556Z,59.00
2018-03-04T22:19:51.519Z,59.00
2018-03-04T22:22:18.914Z,59.10
2018-03-04T22:24:46.063Z,58.80
2018-03-04T22:27:12.761Z,58.80
2018-03-04T22:29:40.096Z,58.80
2018-03-04T22:32:06.453Z,58.80
2018-03-04T22:34:33.552Z,59.00
2018-03-04T22:37:00.109Z,58.90
2018-03-04T22:39:27.317Z,58.50
2018-03-04T22:41:54.245Z,58.80
2018-03-04T22:44:21.890Z,59.00
2018-03-04T22:46:49.036Z,59.00
2018-03-04T22:49:15.832Z,59.00
2018-03-04T22:51:42.194Z,58.70
2018-03-04T22:54:09.068Z,58.90
2018-03-04T22:56:35.918Z,59.00
2018-03-04T22:59:02.917Z,59.00
2018-03-04T23:01:30.090Z,59.10
2018-03-04T23:03:56.968Z,58.90
2018-03-04T23:06:23.343Z,60.00
2018-03-04T23:08:50.916Z,59.10
2018-03-04T23:11:18.467Z,59.30
2018-03-04T23:13:46.001Z,59.50
2018-03-04T23:16:12.750Z,59.20
2018-03-04T23:18:39.959Z,59.50
2018-03-04T23:21:06.339Z,59.30
2018-03-04T23:23:32.721Z,59.50
2018-03-04T23:25:59.984Z,59.30
2018-03-04T23:28:27.200Z,59.60
2018-03-04T23:30:54.005Z,59.50
2018-03-04T23:33:20.580Z,59.60
2018-03-04T23:35:47.458Z,59.60
2018-03-04T23:38:15.406Z,60.50
2018-03-04T23:40:41.783Z,59.90
2018-03-04T23:43:09.513Z,60.30
2018-03-04T23:45:36.357Z,60.40
2018-03-04T23:48:03.724Z,60.10
2018-03-04T23:50:30.669Z,60.60
2018-03-04T23:52:57.539Z,60.50
2018-03-04T23:55:24.352Z,60.70
2018-03-04T23:57:51.548Z,60.50
